createdAt,value
2022-11-12T00:01:12.763Z,3.40
2022-11-12T00:03:40.701Z,3.58
2022-11-12T00:06:09.490Z,3.42
2022-11-12T00:08:37.455Z,3.88
2022-11-12T00:11:05.484Z,3.15
2022-11-12T00:13:33.184Z,3.72
2022-11-12T00:16:00.532Z,3.40
2022-11-12T00:18:28.565Z,3.08
2022-11-12T00:20:56.298Z,3.53
2022-11-12T00:23:23.614Z,3.67
2022-11-12T00:25:59.679Z,3.70
2022-11-12T00:28:27.957Z,2.83
2022-11-12T00:30:56.923Z,2.92
2022-11-12T00:33:27.012Z,3.22
2022-11-12T00:35:56.944Z,2.55
2022-11-12T00:38:25.019Z,3.40
2022-11-12T00:41:00.690Z,3.00
2022-11-12T00:43:28.532Z,3.00
2022-11-12T00:45:55.876Z,3.00
2022-11-12T00:48:24.495Z,3.00
2022-11-12T00:50:52.169Z,3.30
2022-11-12T00:53:19.831Z,2.85
2022-11-12T00:55:47.233Z,3.55
2022-11-12T00:58:14.908Z,3.55
2022-11-12T01:00:42.397Z,3.40
2022-11-12T01:03:10.077Z,3.42
2022-11-12T01:05:37.473Z,3.63
2022-11-12T01:08:04.952Z,3.83
2022-11-12T01:10:32.636Z,3.75
2022-11-12T01:12:59.984Z,3.55
2022-11-12T01:15:27.283Z,4.03
2022-11-12T01:17:55.012Z,3.97
2022-11-12T01:20:22.379Z,3.55
2022-11-12T01:22:50.056Z,3.42
2022-11-12T01:25:17.456Z,3.22
2022-11-12T01:27:45.178Z,3.65
2022-11-12T01:30:12.737Z,3.05
2022-11-12T01:32:40.313Z,3.30
2022-11-12T01:35:08.100Z,3.33
2022-11-12T01:37:35.739Z,3.45
2022-11-12T01:40:03.546Z,3.22
2022-11-12T01:42:32.851Z,3.35
2022-11-12T01:45:00.619Z,3.50
2022-11-12T01:47:33.134Z,3.50
2022-11-12T01:50:21.636Z,3.35
2022-11-12T01:52:53.511Z,3.13
2022-11-12T01:55:24.390Z,3.50
2022-11-12T01:57:59.143Z,3.58
2022-11-12T02:00:26.895Z,3.70
2022-11-12T02:02:58.762Z,3.70
2022-11-12T02:05:28.503Z,4.20
2022-11-12T02:07:57.520Z,4.10
2022-11-12T02:10:25.183Z,4.50
2022-11-12T02:13:09.772Z,3.78
2022-11-12T02:15:38.388Z,4.10
2022-11-12T02:18:06.113Z,3.45
2022-11-12T02:20:35.336Z,3.72
2022-11-12T02:23:04.005Z,5.35
2022-11-12T02:25:31.707Z,4.85
2022-11-12T02:28:02.279Z,4.13
2022-11-12T02:30:35.821Z,4.65
2022-11-12T02:33:04.105Z,4.25
2022-11-12T02:35:31.879Z,4.00
2022-11-12T02:37:59.749Z,4.65
2022-11-12T02:40:27.230Z,5.00
2022-11-12T02:42:54.885Z,4.40
2022-11-12T02:45:25.491Z,4.80
2022-11-12T02:47:53.232Z,4.28
2022-11-12T02:50:21.042Z,4.80
2022-11-12T02:52:48.836Z,4.68
2022-11-12T02:55:16.382Z,4.60
2022-11-12T02:57:43.969Z,4.50
2022-11-12T03:00:13.309Z,3.80
2022-11-12T03:02:43.092Z,3.85
2022-11-12T03:05:11.945Z,4.43
2022-11-12T03:07:42.432Z,3.55
2022-11-12T03:10:10.369Z,4.70
2022-11-12T03:12:38.096Z,3.67
2022-11-12T03:15:05.971Z,3.28
2022-11-12T03:17:35.005Z,4.10
2022-11-12T03:20:02.585Z,3.70
2022-11-12T03:22:31.393Z,3.78
2022-11-12T03:24:59.412Z,3.88
2022-11-12T03:27:27.308Z,4.00
2022-11-12T03:29:55.196Z,3.33
2022-11-12T03:32:22.954Z,4.28
2022-11-12T03:34:55.134Z,3.15
2022-11-12T03:37:23.478Z,3.47
2022-11-12T03:39:51.423Z,3.95
2022-11-12T03:42:19.165Z,4.10
2022-11-12T03:44:46.877Z,3.75
2022-11-12T03:47:14.198Z,3.00
2022-11-12T03:49:41.935Z,3.95
2022-11-12T03:52:11.924Z,3.30
2022-11-12T03:54:39.494Z,3.72
2022-11-12T03:57:07.244Z,3.70
2022-11-12T03:59:34.989Z,3.88
2022-11-12T04:02:04.947Z,4.20
2022-11-12T04:04:48.135Z,3.65
2022-11-12T04:07:31.119Z,4.13
2022-11-12T04:09:59.087Z,3.80
2022-11-12T04:12:41.597Z,3.35
2022-11-12T04:15:09.457Z,4.28
2022-11-12T04:17:52.453Z,3.58
2022-11-12T04:20:35.533Z,3.33
2022-11-12T04:23:03.233Z,3.72
2022-11-12T04:25:46.600Z,3.60
2022-11-12T04:30:41.563Z,3.17
2022-11-12T04:33:08.934Z,3.50
2022-11-12T04:35:36.490Z,3.40
2022-11-12T04:38:04.221Z,3.90
2022-11-12T04:40:47.542Z,3.20
2022-11-12T04:46:01.521Z,3.03
2022-11-12T04:48:29.490Z,3.10
2022-11-12T04:51:03.218Z,2.80
2022-11-12T04:53:31.269Z,2.88
2022-11-12T04:55:59.515Z,2.65
2022-11-12T04:58:27.577Z,2.80
2022-11-12T05:00:55.677Z,2.88
2022-11-12T05:03:23.568Z,2.53
2022-11-12T05:05:51.314Z,2.72
2022-11-12T05:08:20.991Z,2.90
2022-11-12T05:10:49.059Z,2.80
2022-11-12T05:13:16.568Z,2.90
2022-11-12T05:15:44.675Z,2.20
2022-11-12T05:18:12.569Z,2.45
2022-11-12T05:20:40.269Z,2.28
2022-11-12T05:23:08.206Z,2.70
2022-11-12T05:25:36.459Z,2.58
2022-11-12T05:28:06.669Z,2.60
2022-11-12T05:30:34.888Z,2.38
2022-11-12T05:33:03.261Z,2.67
2022-11-12T05:35:31.053Z,2.08
2022-11-12T05:37:59.024Z,2.88
2022-11-12T05:40:26.444Z,2.45
2022-11-12T05:42:56.899Z,2.35
2022-11-12T05:45:26.868Z,2.90
2022-11-12T05:47:57.529Z,2.33
2022-11-12T05:50:28.202Z,2.10
2022-11-12T05:53:04.989Z,2.22
2022-11-12T05:55:37.150Z,2.80
2022-11-12T05:58:06.808Z,2.50
2022-11-12T06:00:41.816Z,2.40
2022-11-12T06:03:10.485Z,2.30
2022-11-12T06:05:39.080Z,2.33
2022-11-12T06:08:07.168Z,2.25
2022-11-12T06:10:35.404Z,2.05
2022-11-12T06:13:03.453Z,2.33
2022-11-12T06:15:36.490Z,2.65
2022-11-12T06:18:07.104Z,1.83
2022-11-12T06:20:35.668Z,2.13
2022-11-12T06:23:03.778Z,2.03
2022-11-12T06:25:31.784Z,2.00
2022-11-12T06:27:59.718Z,2.50
2022-11-12T06:30:27.796Z,2.05
2022-11-12T06:32:55.558Z,1.98
2022-11-12T06:35:23.422Z,2.13
2022-11-12T06:37:50.762Z,1.80
2022-11-12T06:40:18.592Z,1.98
2022-11-12T06:42:46.052Z,1.90
2022-11-12T06:45:14.496Z,2.10
2022-11-12T06:47:42.174Z,2.05
2022-11-12T06:50:09.860Z,1.63
2022-11-12T06:52:37.651Z,1.85
2022-11-12T06:55:05.711Z,1.85
2022-11-12T06:57:33.362Z,1.80
2022-11-12T07:00:01.262Z,2.15
2022-11-12T07:02:29.559Z,1.80
2022-11-12T07:05:00.308Z,1.58
2022-11-12T07:07:29.487Z,1.60
2022-11-12T07:09:57.155Z,1.35
2022-11-12T07:12:25.178Z,1.40
2022-11-12T07:14:54.314Z,1.20
2022-11-12T07:17:22.360Z,1.70
2022-11-12T07:19:50.375Z,1.60
2022-11-12T07:22:18.195Z,1.77
2022-11-12T07:24:46.174Z,1.70
2022-11-12T07:27:13.778Z,2.53
2022-11-12T07:29:48.989Z,1.95
2022-11-12T07:32:16.618Z,1.15
2022-11-12T07:34:46.224Z,1.60
2022-11-12T07:37:14.059Z,1.10
2022-11-12T07:39:41.900Z,1.30
2022-11-12T07:42:09.264Z,1.60
2022-11-12T07:44:39.729Z,1.15
2022-11-12T07:47:08.047Z,1.15
2022-11-12T07:49:35.776Z,1.42
2022-11-12T07:52:06.039Z,1.63
2022-11-12T07:54:36.064Z,1.67
2022-11-12T07:57:06.923Z,2.35
2022-11-12T07:59:41.797Z,1.65
2022-11-12T08:02:15.012Z,1.58
2022-11-12T08:04:46.512Z,1.50
2022-11-12T08:07:17.525Z,1.60
2022-11-12T08:09:46.968Z,1.52
2022-11-12T08:12:16.777Z,1.25
2022-11-12T08:14:47.363Z,1.55
2022-11-12T08:17:16.759Z,2.50
2022-11-12T08:19:45.980Z,1.10
2022-11-12T08:22:15.584Z,1.10
2022-11-12T08:24:44.868Z,1.15
2022-11-12T08:27:14.697Z,1.25
2022-11-12T08:29:44.623Z,1.02
2022-11-12T08:32:17.731Z,1.13
2022-11-12T08:34:48.067Z,1.92
2022-11-12T08:37:18.734Z,2.00
2022-11-12T08:39:49.408Z,1.40
2022-11-12T08:42:19.178Z,0.90
2022-11-12T08:44:50.245Z,1.10
2022-11-12T08:47:20.247Z,1.30
2022-11-12T08:49:53.084Z,1.00
2022-11-12T08:52:22.659Z,0.85
2022-11-12T08:54:51.438Z,1.10
2022-11-12T08:57:20.654Z,1.30
2022-11-12T08:59:49.198Z,0.90
2022-11-12T09:02:19.633Z,0.90
2022-11-12T09:04:49.710Z,1.30
2022-11-12T09:07:48.086Z,2.58
2022-11-12T09:10:05.749Z,2.33
2022-11-12T09:12:33.471Z,3.53
2022-11-12T09:15:35.886Z,1.40
2022-11-12T09:18:04.459Z,1.30
2022-11-12T09:20:35.927Z,1.80
2022-11-12T09:23:10.160Z,1.17
2022-11-12T09:25:42.014Z,1.52
2022-11-12T09:28:17.773Z,1.70
2022-11-12T09:30:48.785Z,1.80
2022-11-12T09:33:18.284Z,1.55
2022-11-12T09:35:46.376Z,1.30
2022-11-12T09:38:15.461Z,1.60
2022-11-12T09:41:11.350Z,1.40
2022-11-12T09:43:48.013Z,1.38
2022-11-12T09:46:35.281Z,1.50
2022-11-12T09:49:16.836Z,1.20
2022-11-12T09:51:50.363Z,1.60
2022-11-12T09:54:24.350Z,1.50
2022-11-12T09:56:53.828Z,1.50
2022-11-12T09:59:22.709Z,1.40
2022-11-12T10:02:15.528Z,1.15
2022-11-12T10:05:11.242Z,1.20
2022-11-12T10:08:09.499Z,1.60
2022-11-12T10:10:49.908Z,1.40
2022-11-12T10:13:40.718Z,1.30
2022-11-12T10:16:46.756Z,0.95
2022-11-12T10:19:41.057Z,2.20
2022-11-12T10:22:39.015Z,1.23
2022-11-12T10:25:16.912Z,0.90
2022-11-12T10:27:45.591Z,1.30
2022-11-12T10:30:22.212Z,0.90
2022-11-12T10:32:50.673Z,1.00
2022-11-12T10:35:22.923Z,0.80
2022-11-12T10:38:06.091Z,1.23
2022-11-12T10:40:40.765Z,1.08
2022-11-12T10:43:28.208Z,1.25
2022-11-12T10:46:24.774Z,1.05
2022-11-12T10:49:01.303Z,0.90
2022-11-12T10:51:35.877Z,1.00
2022-11-12T10:54:22.878Z,0.90
2022-11-12T10:56:55.488Z,1.10
2022-11-12T10:59:25.583Z,1.00
2022-11-12T11:01:58.291Z,1.38
2022-11-12T11:04:32.565Z,0.90
2022-11-12T11:07:15.691Z,1.10
2022-11-12T11:10:01.027Z,1.00
2022-11-12T11:12:32.116Z,0.77
2022-11-12T11:15:27.175Z,0.88
2022-11-12T11:17:55.540Z,1.08
2022-11-12T11:20:33.050Z,1.10
2022-11-12T11:23:07.450Z,0.88
2022-11-12T11:25:37.333Z,0.98
2022-11-12T11:28:35.377Z,0.90
2022-11-12T11:31:24.573Z,0.75
2022-11-12T11:34:25.764Z,1.10
2022-11-12T11:37:19.922Z,0.65
2022-11-12T11:40:11.381Z,0.80
2022-11-12T11:43:05.976Z,0.70
2022-11-12T11:45:35.850Z,0.80
2022-11-12T11:48:28.561Z,0.90
2022-11-12T11:51:19.916Z,0.90
2022-11-12T11:54:30.181Z,0.80
2022-11-12T11:57:00.518Z,0.82
2022-11-12T11:59:51.590Z,0.82
2022-11-12T12:02:43.058Z,0.90
2022-11-12T12:05:35.704Z,0.80
2022-11-12T12:08:06.688Z,0.77
2022-11-12T12:11:09.286Z,0.80
2022-11-12T12:14:13.591Z,0.70
2022-11-12T12:17:11.837Z,0.85
2022-11-12T12:20:16.018Z,0.80
2022-11-12T12:22:50.902Z,0.80
2022-11-12T12:25:27.683Z,0.80
2022-11-12T12:28:16.743Z,1.20
2022-11-12T12:30:52.168Z,0.60
2022-11-12T12:33:45.567Z,0.75
2022-11-12T12:36:28.449Z,1.00
2022-11-12T12:39:19.533Z,1.05
2022-11-12T12:41:53.828Z,1.05
2022-11-12T12:44:43.015Z,1.05
2022-11-12T12:47:14.844Z,1.08
2022-11-12T12:49:48.898Z,0.80
2022-11-12T12:52:16.959Z,0.98
2022-11-12T12:54:57.122Z,0.75
2022-11-12T12:57:40.504Z,0.90
2022-11-12T13:00:38.390Z,1.60
2022-11-12T13:03:07.134Z,2.38
2022-11-12T13:05:37.882Z,0.80
2022-11-12T13:08:11.037Z,0.75
2022-11-12T13:13:32.445Z,0.80
2022-11-12T13:16:02.680Z,0.82
2022-11-12T13:18:58.008Z,0.85
2022-11-12T13:21:27.301Z,0.75
2022-11-12T13:24:13.211Z,1.27
2022-11-12T13:26:49.473Z,1.00
2022-11-12T13:29:39.781Z,0.93
2022-11-12T13:32:38.652Z,1.08
2022-11-12T13:35:26.623Z,0.80
2022-11-12T13:38:16.027Z,0.70
2022-11-12T13:41:07.560Z,0.90
2022-11-12T13:43:40.689Z,0.90
2022-11-12T13:49:10.671Z,0.93
2022-11-12T13:51:45.776Z,0.80
2022-11-12T13:54:31.453Z,0.95
2022-11-12T13:57:15.974Z,0.93
2022-11-12T13:59:46.536Z,0.93
2022-11-12T14:02:22.983Z,0.85
2022-11-12T14:04:52.691Z,0.80
2022-11-12T14:07:47.641Z,0.70
2022-11-12T14:10:45.917Z,0.77
2022-11-12T14:13:38.684Z,0.73
2022-11-12T14:16:43.632Z,0.70
2022-11-12T14:19:37.786Z,1.08
2022-11-12T14:22:15.290Z,0.85
2022-11-12T14:24:43.492Z,0.57
2022-11-12T14:27:34.316Z,0.70
2022-11-12T14:30:28.726Z,0.80
2022-11-12T14:33:18.974Z,0.60
2022-11-12T14:35:50.415Z,0.68
2022-11-12T14:38:24.016Z,0.70
2022-11-12T14:41:02.661Z,1.33
2022-11-12T14:43:39.555Z,1.00
2022-11-12T14:46:10.045Z,0.65
2022-11-12T14:48:52.125Z,0.65
2022-11-12T14:51:23.026Z,0.70
2022-11-12T14:54:00.981Z,1.67
2022-11-12T14:56:38.546Z,0.73
2022-11-12T14:59:07.144Z,0.98
2022-11-12T15:02:14.508Z,0.65
2022-11-12T15:04:26.411Z,0.60
2022-11-12T15:06:57.130Z,1.27
2022-11-12T15:09:35.421Z,0.60
2022-11-12T15:12:10.673Z,0.50
2022-11-12T15:14:38.825Z,0.47
2022-11-12T15:17:07.245Z,0.45
2022-11-12T15:19:36.658Z,0.60
2022-11-12T15:22:05.676Z,0.73
2022-11-12T15:24:37.844Z,0.70
2022-11-12T15:27:36.387Z,0.70
2022-11-12T15:30:24.911Z,0.50
2022-11-12T15:33:09.086Z,1.00
2022-11-12T15:35:39.586Z,0.50
2022-11-12T15:38:15.978Z,0.60
2022-11-12T15:40:46.799Z,0.43
2022-11-12T15:43:17.805Z,1.13
2022-11-12T15:45:53.168Z,1.00
2022-11-12T15:48:21.262Z,1.20
2022-11-12T15:50:49.303Z,0.50
2022-11-12T15:53:17.582Z,0.77
2022-11-12T15:55:46.376Z,0.70
2022-11-12T15:58:20.688Z,0.63
2022-11-12T16:00:48.747Z,1.00
2022-11-12T16:03:20.032Z,0.65
2022-11-12T16:05:48.850Z,0.60
2022-11-12T16:08:16.999Z,0.60
2022-11-12T16:10:46.578Z,0.80
2022-11-12T16:13:21.165Z,0.60
2022-11-12T16:15:52.549Z,0.82
2022-11-12T16:18:20.926Z,0.63
2022-11-12T16:20:50.189Z,0.70
2022-11-12T16:23:20.073Z,0.88
2022-11-12T16:25:48.035Z,0.70
2022-11-12T16:28:18.506Z,0.50
2022-11-12T16:30:48.029Z,0.98
2022-11-12T16:33:16.006Z,0.70
2022-11-12T16:35:44.054Z,0.90
2022-11-12T16:38:15.629Z,0.80
2022-11-12T16:40:44.808Z,0.70
2022-11-12T16:43:12.901Z,0.57
2022-11-12T16:45:43.560Z,0.60
2022-11-12T16:48:18.030Z,0.65
2022-11-12T16:50:46.220Z,0.55
2022-11-12T16:53:13.876Z,0.73
2022-11-12T16:55:46.258Z,0.70
2022-11-12T16:58:15.065Z,0.70
2022-11-12T17:00:46.512Z,0.50
2022-11-12T17:03:15.104Z,0.68
2022-11-12T17:05:44.444Z,0.70
2022-11-12T17:08:14.885Z,0.90
2022-11-12T17:10:44.037Z,0.85
2022-11-12T17:13:13.821Z,0.70
2022-11-12T17:15:42.581Z,0.70
2022-11-12T17:18:11.186Z,0.80
2022-11-12T17:20:39.034Z,0.57
2022-11-12T17:23:07.205Z,0.50
2022-11-12T17:25:35.269Z,0.50
2022-11-12T17:28:03.999Z,0.57
2022-11-12T17:30:32.332Z,0.60
2022-11-12T17:33:00.592Z,0.50
2022-11-12T17:35:28.692Z,0.65
2022-11-12T17:37:56.681Z,1.05
2022-11-12T17:40:24.738Z,0.80
2022-11-12T17:42:54.147Z,0.75
2022-11-12T17:45:25.249Z,0.68
2022-11-12T17:47:53.636Z,0.90
2022-11-12T17:50:22.224Z,0.65
2022-11-12T17:52:50.704Z,0.57
2022-11-12T17:55:19.242Z,0.80
2022-11-12T17:57:47.401Z,0.50
2022-11-12T18:00:17.040Z,0.63
2022-11-12T18:02:46.381Z,0.77
2022-11-12T18:05:15.252Z,0.80
2022-11-12T18:07:44.631Z,0.70
2022-11-12T18:10:18.341Z,0.60
2022-11-12T18:12:47.688Z,0.80
2022-11-12T18:15:16.207Z,0.68
2022-11-12T18:17:45.309Z,0.60
2022-11-12T18:20:13.447Z,0.45
2022-11-12T18:22:44.930Z,0.60
2022-11-12T18:25:13.469Z,0.70
2022-11-12T18:27:44.958Z,0.50
2022-11-12T18:30:18.993Z,0.60
2022-11-12T18:32:47.350Z,0.80
2022-11-12T18:35:15.329Z,0.90
2022-11-12T18:37:46.008Z,0.70
2022-11-12T18:40:14.208Z,0.60
2022-11-12T18:42:42.667Z,0.70
2022-11-12T18:45:11.069Z,1.20
2022-11-12T18:47:42.106Z,0.60
2022-11-12T18:50:13.894Z,0.60
2022-11-12T18:52:41.860Z,0.82
2022-11-12T18:55:11.000Z,1.27
2022-11-12T18:57:38.884Z,0.60
2022-11-12T19:00:08.018Z,0.80
2022-11-12T19:02:35.994Z,1.13
2022-11-12T19:05:03.916Z,1.05
2022-11-12T19:07:31.959Z,0.63
2022-11-12T19:09:59.917Z,0.60
2022-11-12T19:12:29.144Z,0.80
2022-11-12T19:14:57.205Z,0.90
2022-11-12T19:17:30.877Z,0.75
2022-11-12T19:19:59.097Z,0.85
2022-11-12T19:22:27.114Z,0.90
2022-11-12T19:24:55.258Z,0.95
2022-11-12T19:27:26.399Z,0.60
2022-11-12T19:30:02.659Z,1.00
2022-11-12T19:32:34.784Z,1.08
2022-11-12T19:35:04.094Z,0.70
2022-11-12T19:37:36.465Z,0.80
2022-11-12T19:40:07.070Z,0.88
2022-11-12T19:42:41.562Z,0.70
2022-11-12T19:45:13.665Z,1.00
2022-11-12T19:47:52.415Z,0.80
2022-11-12T19:50:24.491Z,0.60
2022-11-12T19:52:55.092Z,1.10
2022-11-12T19:55:23.200Z,0.82
2022-11-12T19:57:54.321Z,0.70
2022-11-12T20:00:26.942Z,0.88
2022-11-12T20:02:55.189Z,0.98
2022-11-12T20:05:28.110Z,0.65
2022-11-12T20:07:58.463Z,0.80
2022-11-12T20:10:31.914Z,0.90
2022-11-12T20:13:00.016Z,1.10
2022-11-12T20:15:27.974Z,0.70
2022-11-12T20:17:55.954Z,0.70
2022-11-12T20:20:23.943Z,0.80
2022-11-12T20:22:52.056Z,1.13
2022-11-12T20:25:19.612Z,0.98
2022-11-12T20:27:47.713Z,1.20
2022-11-12T20:30:15.629Z,1.23
2022-11-12T20:32:43.583Z,1.23
2022-11-12T20:35:19.337Z,0.98
2022-11-12T20:37:50.320Z,1.20
2022-11-12T20:40:18.293Z,0.90
2022-11-12T20:42:46.340Z,0.77
2022-11-12T20:45:14.525Z,0.63
2022-11-12T20:47:42.458Z,1.00
2022-11-12T20:50:10.273Z,0.90
2022-11-12T20:52:38.094Z,1.00
2022-11-12T20:55:06.433Z,0.80
2022-11-12T20:57:34.654Z,0.77
2022-11-12T21:00:02.436Z,0.73
2022-11-12T21:02:33.837Z,1.00
2022-11-12T21:05:01.762Z,0.85
2022-11-12T21:07:32.706Z,0.90
2022-11-12T21:10:01.666Z,0.80
2022-11-12T21:12:32.789Z,0.70
2022-11-12T21:15:00.774Z,1.17
2022-11-12T21:17:31.406Z,0.90
2022-11-12T21:19:59.891Z,0.93
2022-11-12T21:22:27.756Z,0.90
2022-11-12T21:24:55.760Z,0.73
2022-11-12T21:27:23.878Z,0.75
2022-11-12T21:29:52.265Z,0.90
2022-11-12T21:32:20.459Z,0.70
2022-11-12T21:34:48.579Z,1.17
2022-11-12T21:37:18.702Z,1.08
2022-11-12T21:39:49.580Z,0.95
2022-11-12T21:42:17.497Z,0.95
2022-11-12T21:44:45.510Z,1.00
2022-11-12T21:47:13.454Z,0.80
2022-11-12T21:49:43.772Z,0.70
2022-11-12T21:52:13.037Z,1.20
2022-11-12T21:54:41.058Z,0.90
2022-11-12T21:57:09.023Z,1.00
2022-11-12T21:59:37.050Z,0.70
2022-11-12T22:02:05.234Z,0.88
2022-11-12T22:04:36.656Z,0.70
2022-11-12T22:07:05.736Z,0.80
2022-11-12T22:09:34.007Z,0.82
2022-11-12T22:12:01.662Z,0.73
2022-11-12T22:14:29.845Z,0.85
2022-11-12T22:16:57.638Z,0.73
2022-11-12T22:19:25.448Z,0.98
2022-11-12T22:21:53.429Z,0.80
2022-11-12T22:24:21.183Z,0.63
2022-11-12T22:26:49.011Z,1.00
2022-11-12T22:29:16.929Z,1.73
2022-11-12T22:31:44.737Z,0.60
2022-11-12T22:34:12.564Z,0.90
2022-11-12T22:36:40.573Z,0.77
2022-11-12T22:39:08.387Z,0.52
2022-11-12T22:41:38.651Z,0.80
2022-11-12T22:44:09.034Z,0.73
2022-11-12T22:46:37.191Z,0.82
2022-11-12T22:49:05.217Z,0.70
2022-11-12T22:51:35.458Z,0.70
2022-11-12T22:54:05.796Z,0.70
2022-11-12T22:56:33.762Z,0.70
2022-11-12T22:59:04.973Z,0.63
2022-11-12T23:01:35.411Z,0.60
2022-11-12T23:04:05.975Z,0.55
2022-11-12T23:06:33.865Z,0.77
2022-11-12T23:09:01.850Z,0.70
2022-11-12T23:11:29.871Z,0.60
2022-11-12T23:14:01.228Z,0.55
2022-11-12T23:16:30.988Z,0.77
2022-11-12T23:19:00.420Z,1.52
2022-11-12T23:21:32.050Z,0.50
2022-11-12T23:24:01.094Z,0.60
2022-11-12T23:26:32.346Z,0.70
2022-11-12T23:29:03.890Z,0.45
2022-11-12T23:31:34.292Z,1.77
2022-11-12T23:34:03.270Z,0.40
2022-11-12T23:36:34.143Z,0.45
2022-11-12T23:39:02.643Z,0.63
2022-11-12T23:41:30.519Z,0.50
2022-11-12T23:43:58.668Z,0.75
2022-11-12T23:46:26.213Z,0.75
2022-11-12T23:48:53.884Z,0.50
2022-11-12T23:51:22.600Z,0.50
2022-11-12T23:53:50.404Z,0.60
2022-11-12T23:56:19.894Z,0.70
2022-11-12T23:58:48.060Z,0.52
